East Norwich, New York
Current Conditions -  °F | °C
As of 4:53 PM on Wednesday 28 Jan 2015 (Local Time) from KFRG Reporting Station
Clear Clear  
Wind Chill: 22°   Ceiling: Unl
Heat Index: 31°   Visibility: 10mi
Dew Point:   Wind: 12mph
Humidity: 40%   Direction: 340°NNW
Pressure: 30.11"   Gusts: NA
Location:  40.85°N, 73.53°W
Report Text: KFRG 282153Z 34010KT 10SM CLR M01/M13 A3011 RMK AO2 SLP198 T10061128
Loading
Personal Weather Stations






























Interactive Weather Map New forecast layout! Learn more

10-Day Weather Forecast

Advertisements
Track Severe Weather on mobile